Terminal Aerodrome Forecast
Issued by NWS Spokane, WA

Home | Current Version | Previous Version | Text Only | Print | Product List | Glossary On
Versions: 1 2 3 4 5 6 7 8 9 10 11 12 13 14 15 16 17 18 19 20 21 22 23 24
000
FTUS46 KOTX 191140
TAFLWS
TAF
KLWS 191140Z 1912/2012 25011KT P6SM BKN250
     FM191600 29014G22KT P6SM SCT120 BKN200
     FM191900 30018G30KT P6SM SCT080 BKN120
     FM200400 28013G20KT P6SM FEW080 SCT200=

USA.gov is the U.S. government's official web portal to all federal, state and local government web resources and services.